Time;durP1;ratioP1;P1;durP2;ratioP2;P2;SDS_P1;SDS_P2;PMS_P1;PMS_P2;Temp;Humidity;BMP_temperature;BMP_pressure;BME280_temperature;BME280_humidity;BME280_pressure;Samples;Min_cycle;Max_cycle;Signal;HPM_P1;HPM_P2
2021/04/26 00:00:43;;;;;;;3.67;1.00;;;7.00;67.90;;;;;;5088010;28;20024;-84
2021/04/26 00:03:08;;;;;;;5.68;2.22;;;7.00;67.90;;;;;;5090507;28;20027;-85
2021/04/26 00:05:34;;;;;;;4.32;0.82;;;7.00;68.00;;;;;;5086020;28;20041;-85
2021/04/26 00:07:59;;;;;;;6.32;1.52;;;6.90;68.20;;;;;;5080770;28;20103;-88
2021/04/26 00:10:25;;;;;;;3.45;0.80;;;6.90;68.60;;;;;;5082403;28;20479;-86
2021/04/26 00:12:51;;;;;;;7.60;1.40;;;6.80;68.90;;;;;;5090665;28;20107;-87
2021/04/26 00:15:19;;;;;;;3.03;0.75;;;6.70;69.60;;;;;;5080555;28;20422;-84
2021/04/26 00:17:45;;;;;;;2.22;1.05;;;6.70;69.60;;;;;;5080778;28;20023;-87
2021/04/26 00:20:12;;;;;;;3.38;1.33;;;6.60;69.70;;;;;;5083458;28;20036;-85
2021/04/26 00:22:38;;;;;;;2.90;1.00;;;6.60;69.90;;;;;;5088543;28;20077;-84
2021/04/26 00:25:06;;;;;;;3.17;0.75;;;6.60;70.00;;;;;;5089762;28;20115;-85
2021/04/26 00:27:33;;;;;;;3.33;1.15;;;6.50;70.40;;;;;;5080938;28;20028;-86
2021/04/26 00:29:58;;;;;;;6.28;1.25;;;6.40;70.80;;;;;;5090717;28;20042;-87
2021/04/26 00:32:24;;;;;;;5.10;1.38;;;6.40;71.20;;;;;;5080249;28;20475;-86
2021/04/26 00:34:49;;;;;;;10.18;1.42;;;6.30;71.50;;;;;;5085168;28;20081;-87
2021/04/26 00:37:15;;;;;;;4.47;1.10;;;6.30;71.90;;;;;;5084516;28;20024;-85
2021/04/26 00:39:40;;;;;;;6.43;1.35;;;6.30;72.00;;;;;;5083578;28;20056;-86
2021/04/26 00:42:06;;;;;;;2.60;0.88;;;6.20;72.10;;;;;;5081894;28;20039;-87
2021/04/26 00:44:32;;;;;;;4.95;1.02;;;6.30;72.20;;;;;;5081340;28;20024;-86
2021/04/26 00:46:57;;;;;;;7.20;1.05;;;6.20;72.10;;;;;;5085611;28;20027;-87
2021/04/26 00:49:23;;;;;;;8.38;1.33;;;6.20;72.30;;;;;;5090831;28;20111;-87
2021/04/26 00:51:49;;;;;;;1.83;0.77;;;6.10;72.50;;;;;;5087146;28;20008;-87
2021/04/26 00:54:14;;;;;;;2.95;0.90;;;6.00;72.70;;;;;;5082423;28;20077;-83
2021/04/26 00:56:40;;;;;;;6.07;1.30;;;6.00;72.90;;;;;;5088483;28;20388;-86
2021/04/26 00:59:06;;;;;;;6.03;1.38;;;6.00;73.00;;;;;;5087052;28;20023;-87
2021/04/26 01:01:32;;;;;;;6.28;1.23;;;5.90;73.40;;;;;;5088285;28;20012;-85
2021/04/26 01:03:57;;;;;;;4.65;1.30;;;5.90;73.80;;;;;;5090722;28;20115;-86
2021/04/26 01:06:23;;;;;;;4.80;1.13;;;5.90;73.70;;;;;;5076784;28;20115;-85
2021/04/26 01:08:49;;;;;;;4.72;1.25;;;5.90;73.80;;;;;;5083958;28;20024;-88
2021/04/26 01:11:15;;;;;;;3.70;1.35;;;5.80;73.80;;;;;;5082222;28;20023;-87
2021/04/26 01:13:47;;;;;;;4.72;1.48;;;5.80;73.90;;;;;;5083608;28;20028;-87
2021/04/26 01:16:22;;;;;;;7.45;1.48;;;5.90;74.00;;;;;;5081031;28;20020;-86
2021/04/26 01:18:54;;;;;;;4.15;1.15;;;5.90;73.70;;;;;;5080518;28;20032;-85
2021/04/26 01:21:44;;;;;;;4.10;1.02;;;5.80;73.90;;;;;;5087703;28;20040;-85
2021/04/26 01:24:51;;;;;;;2.72;1.13;;;5.80;74.00;;;;;;5080444;28;20031;-87
2021/04/26 01:27:41;;;;;;;5.43;1.10;;;5.70;74.50;;;;;;5083008;28;20021;-88
2021/04/26 01:30:15;;;;;;;6.75;1.58;;;5.60;74.80;;;;;;5088401;28;20069;-88
2021/04/26 01:32:48;;;;;;;6.57;1.30;;;5.50;75.30;;;;;;5074703;28;20029;-85
2021/04/26 01:35:19;;;;;;;4.55;1.23;;;5.50;75.40;;;;;;5086816;28;20020;-86
2021/04/26 01:38:10;;;;;;;5.57;1.45;;;5.40;76.00;;;;;;5081060;28;20481;-85
2021/04/26 01:40:38;;;;;;;5.30;1.67;;;5.30;76.40;;;;;;5080422;28;20020;-85
2021/04/26 01:43:04;;;;;;;2.83;1.00;;;5.30;76.80;;;;;;5086875;28;20428;-84
2021/04/26 01:45:30;;;;;;;4.25;1.30;;;5.20;76.80;;;;;;5087952;28;20372;-86
2021/04/26 01:47:58;;;;;;;5.18;1.00;;;5.20;77.30;;;;;;5093113;28;20024;-85
2021/04/26 01:50:24;;;;;;;3.95;1.77;;;5.10;77.60;;;;;;5095214;28;20387;-86
2021/04/26 01:52:51;;;;;;;3.83;1.30;;;5.10;77.60;;;;;;5089140;28;20116;-86
2021/04/26 01:55:20;;;;;;;4.97;1.02;;;5.10;77.70;;;;;;5091966;28;20016;-86
2021/04/26 01:57:46;;;;;;;3.20;1.10;;;5.10;77.90;;;;;;5085225;28;20038;-84
2021/04/26 02:00:17;;;;;;;5.07;1.10;;;5.10;77.70;;;;;;5081729;28;20120;-84
2021/04/26 02:02:45;;;;;;;3.60;0.90;;;5.00;77.70;;;;;;5092270;28;20030;-86
2021/04/26 02:05:13;;;;;;;3.42;0.93;;;5.10;77.60;;;;;;5082702;28;20467;-86
2021/04/26 02:07:42;;;;;;;5.05;1.00;;;5.10;77.60;;;;;;5082096;28;20039;-86
2021/04/26 02:10:10;;;;;;;2.38;1.00;;;5.10;77.60;;;;;;5080628;28;20027;-85
2021/04/26 02:12:37;;;;;;;3.40;0.60;;;5.10;77.50;;;;;;5076835;28;20055;-84
2021/04/26 02:15:06;;;;;;;3.25;0.93;;;5.10;77.30;;;;;;5087029;28;20103;-86
2021/04/26 02:17:33;;;;;;;3.75;1.10;;;5.10;77.10;;;;;;5085129;28;20025;-87
2021/04/26 02:19:58;;;;;;;9.18;1.73;;;5.00;77.20;;;;;;5090800;28;20495;-88
2021/04/26 02:22:24;;;;;;;5.85;1.00;;;5.00;77.50;;;;;;5084049;28;20020;-86
2021/04/26 02:24:50;;;;;;;5.00;1.30;;;5.00;77.50;;;;;;5091759;28;20092;-85
2021/04/26 02:27:15;;;;;;;3.28;0.90;;;5.00;77.40;;;;;;5078580;28;20013;-84
2021/04/26 02:29:41;;;;;;;2.85;0.73;;;5.00;77.50;;;;;;5091209;28;20032;-85
2021/04/26 02:32:12;;;;;;;3.70;1.20;;;5.00;77.50;;;;;;5092622;28;20012;-86
2021/04/26 02:34:46;;;;;;;5.68;1.17;;;4.90;78.00;;;;;;5089498;28;20078;-85
2021/04/26 02:37:34;;;;;;;6.45;0.90;;;4.90;78.10;;;;;;5090116;28;20016;-86
2021/04/26 02:40:05;;;;;;;7.00;1.35;;;4.80;78.20;;;;;;5082586;28;20028;-86
2021/04/26 02:42:34;;;;;;;7.15;1.02;;;4.80;78.40;;;;;;5089182;28;20423;-87
2021/04/26 02:45:01;;;;;;;7.13;1.65;;;4.80;78.30;;;;;;5092218;28;20103;-87
2021/04/26 02:47:28;;;;;;;3.58;1.00;;;4.80;78.20;;;;;;5092379;28;20493;-86
2021/04/26 02:49:54;;;;;;;3.30;0.70;;;4.80;78.20;;;;;;5083866;28;20024;-87
2021/04/26 02:52:20;;;;;;;3.83;1.20;;;4.80;78.00;;;;;;5091411;28;20035;-85
2021/04/26 02:54:48;;;;;;;4.90;1.10;;;4.80;78.20;;;;;;5085445;28;20023;-86
2021/04/26 02:57:15;;;;;;;5.43;1.20;;;4.80;78.30;;;;;;5081652;28;20101;-86
2021/04/26 02:59:42;;;;;;;2.83;1.40;;;4.80;78.50;;;;;;5089813;28;20024;-87
2021/04/26 03:02:08;;;;;;;2.58;1.05;;;4.80;78.60;;;;;;5084854;28;20110;-86
2021/04/26 03:04:34;;;;;;;7.93;1.50;;;4.70;78.40;;;;;;5089867;28;20024;-86
2021/04/26 03:07:02;;;;;;;4.50;1.40;;;4.60;78.90;;;;;;5083008;28;20025;-85
2021/04/26 03:09:33;;;;;;;4.13;1.42;;;4.50;79.70;;;;;;5084099;28;20028;-85
2021/04/26 03:12:00;;;;;;;2.78;1.10;;;4.40;80.00;;;;;;5088648;28;20025;-87
2021/04/26 03:14:26;;;;;;;3.15;1.40;;;4.40;80.20;;;;;;5093198;28;20023;-86
2021/04/26 03:16:53;;;;;;;5.13;1.33;;;4.40;80.30;;;;;;5091876;28;20023;-88
2021/04/26 03:19:20;;;;;;;5.65;1.95;;;4.30;80.80;;;;;;5082896;28;20068;-87
2021/04/26 03:21:49;;;;;;;5.47;1.20;;;4.20;81.00;;;;;;5068521;28;20028;-87
2021/04/26 03:24:17;;;;;;;3.50;0.80;;;4.20;81.00;;;;;;5047135;28;20086;-85
2021/04/26 03:26:44;;;;;;;2.95;1.10;;;4.20;81.00;;;;;;5048423;28;20538;-83
2021/04/26 03:29:14;;;;;;;3.60;1.00;;;4.20;81.10;;;;;;5053516;28;20024;-86
2021/04/26 03:31:40;;;;;;;2.80;1.05;;;4.20;81.20;;;;;;5052785;28;20024;-87
2021/04/26 03:34:07;;;;;;;5.40;1.20;;;4.10;81.20;;;;;;5067643;28;20032;-86
2021/04/26 03:36:33;;;;;;;3.22;1.33;;;4.20;81.00;;;;;;5040385;28;20029;-87
2021/04/26 03:38:59;;;;;;;3.15;1.02;;;4.20;80.80;;;;;;5039677;28;20029;-87
2021/04/26 03:41:25;;;;;;;2.05;0.90;;;4.20;80.80;;;;;;5051858;28;20416;-87
2021/04/26 03:43:50;;;;;;;1.92;0.80;;;4.20;80.50;;;;;;5046240;28;20495;-85
2021/04/26 03:46:16;;;;;;;3.97;1.33;;;4.20;80.50;;;;;;5050720;28;20020;-86
2021/04/26 03:48:41;;;;;;;4.60;1.35;;;4.20;80.60;;;;;;5038653;28;20078;-86
2021/04/26 03:51:07;;;;;;;3.42;0.93;;;4.10;80.80;;;;;;5053172;28;20074;-85
2021/04/26 03:53:32;;;;;;;4.88;1.63;;;4.10;80.90;;;;;;5065680;28;20074;-84
2021/04/26 03:55:58;;;;;;;6.35;1.40;;;4.00;81.50;;;;;;5055768;28;20025;-87
2021/04/26 03:58:24;;;;;;;4.05;1.30;;;4.00;81.80;;;;;;5044526;28;20023;-86
2021/04/26 04:00:49;;;;;;;3.80;1.00;;;4.00;81.80;;;;;;5049125;28;20020;-86
2021/04/26 04:03:15;;;;;;;3.13;1.20;;;4.00;81.90;;;;;;5070489;28;20028;-86
2021/04/26 04:05:42;;;;;;;3.97;1.17;;;4.10;81.80;;;;;;5043730;28;20119;-85
2021/04/26 04:08:08;;;;;;;4.10;1.00;;;4.10;81.60;;;;;;5049449;28;20064;-87
2021/04/26 04:10:34;;;;;;;3.13;1.10;;;4.10;81.40;;;;;;5062389;28;20100;-87
2021/04/26 04:13:00;;;;;;;2.58;0.90;;;4.10;81.30;;;;;;5046531;28;20544;-86
2021/04/26 04:15:26;;;;;;;1.40;0.70;;;4.20;81.30;;;;;;5042823;28;20126;-86
2021/04/26 04:17:52;;;;;;;5.63;1.85;;;4.10;81.20;;;;;;5046848;28;20048;-86
2021/04/26 04:20:18;;;;;;;3.53;0.93;;;4.10;81.20;;;;;;5060023;28;20052;-86
2021/04/26 04:22:44;;;;;;;2.97;0.80;;;4.10;81.30;;;;;;5083660;28;20027;-85
2021/04/26 04:25:10;;;;;;;3.47;1.10;;;4.00;81.30;;;;;;5082827;28;20019;-86
2021/04/26 04:27:37;;;;;;;3.53;1.15;;;3.90;82.00;;;;;;5078831;28;20484;-86
2021/04/26 04:30:06;;;;;;;4.85;1.55;;;3.90;82.40;;;;;;5068056;28;20039;-87
2021/04/26 04:32:31;;;;;;;6.30;1.10;;;3.90;82.50;;;;;;5088040;28;20099;-87
2021/04/26 04:34:57;;;;;;;3.40;0.90;;;3.80;82.40;;;;;;5081706;28;20734;-85
2021/04/26 04:37:23;;;;;;;3.47;0.82;;;3.80;82.60;;;;;;5072420;28;20564;-88
2021/04/26 04:39:48;;;;;;;3.97;1.23;;;3.80;82.60;;;;;;5052873;28;20108;-87
2021/04/26 04:42:14;;;;;;;3.80;1.17;;;3.80;82.60;;;;;;5077041;28;20472;-85
2021/04/26 04:44:40;;;;;;;3.00;0.90;;;3.80;82.50;;;;;;5084062;28;20029;-87
2021/04/26 04:47:05;;;;;;;2.80;1.02;;;3.80;82.60;;;;;;5076428;28;20012;-87
2021/04/26 04:49:31;;;;;;;2.08;0.80;;;3.90;82.60;;;;;;5087596;28;20017;-87
2021/04/26 04:51:56;;;;;;;3.72;0.85;;;3.90;82.60;;;;;;5079383;28;20025;-87
2021/04/26 04:54:22;;;;;;;1.55;0.80;;;3.80;82.60;;;;;;5076944;28;20476;-88
2021/04/26 04:56:51;;;;;;;1.85;0.70;;;3.80;82.70;;;;;;5089416;28;20027;-86
2021/04/26 04:59:17;;;;;;;1.47;0.90;;;3.90;82.80;;;;;;5086703;28;20097;-86
2021/04/26 05:01:42;;;;;;;2.40;0.82;;;3.90;82.70;;;;;;5090661;28;20066;-87
2021/04/26 05:04:08;;;;;;;4.55;0.95;;;3.90;82.50;;;;;;5084728;28;20078;-86
2021/04/26 05:06:33;;;;;;;3.58;1.20;;;4.00;82.60;;;;;;5085915;28;20017;-87
2021/04/26 05:08:59;;;;;;;3.28;1.20;;;4.00;83.20;;;;;;5085834;28;20032;-87
2021/04/26 05:11:24;;;;;;;4.10;1.13;;;3.90;82.80;;;;;;5075258;28;20028;-86
2021/04/26 05:13:50;;;;;;;3.95;1.45;;;3.90;83.20;;;;;;5084313;28;20020;-87
2021/04/26 05:16:15;;;;;;;5.00;1.08;;;4.00;83.20;;;;;;5082161;28;20016;-87
2021/04/26 05:18:41;;;;;;;2.88;1.02;;;4.00;83.20;;;;;;5079207;28;20032;-87
2021/04/26 05:21:07;;;;;;;4.95;1.02;;;4.00;83.20;;;;;;5076191;28;20440;-87
2021/04/26 05:23:33;;;;;;;4.90;1.20;;;4.00;83.30;;;;;;5083460;28;20114;-86
2021/04/26 05:25:59;;;;;;;6.28;1.55;;;4.10;83.50;;;;;;5074561;28;20052;-85
2021/04/26 05:28:24;;;;;;;4.95;1.38;;;4.10;83.80;;;;;;5076261;28;20031;-85
2021/04/26 05:30:50;;;;;;;6.40;1.95;;;4.10;83.80;;;;;;5075660;28;20107;-85
2021/04/26 05:33:17;;;;;;;2.85;1.38;;;4.10;83.70;;;;;;5065485;28;20029;-86
2021/04/26 05:35:42;;;;;;;11.82;1.30;;;4.20;84.60;;;;;;5055510;28;20480;-85
2021/04/26 05:38:16;;;;;;;1.67;0.80;;;4.20;84.00;;;;;;5054692;28;20068;-85
2021/04/26 05:40:41;;;;;;;3.70;1.20;;;4.20;83.80;;;;;;5054727;28;20473;-86
2021/04/26 05:43:08;;;;;;;4.10;1.10;;;4.30;84.00;;;;;;5054678;28;20040;-86
2021/04/26 05:45:34;;;;;;;2.30;1.00;;;4.30;84.00;;;;;;5055803;28;20024;-86
2021/04/26 05:48:00;;;;;;;3.10;1.10;;;4.40;83.80;;;;;;5055899;28;20033;-85
2021/04/26 05:50:25;;;;;;;2.55;0.88;;;4.40;84.00;;;;;;5054787;28;20032;-85
2021/04/26 05:52:51;;;;;;;4.63;0.85;;;4.50;83.80;;;;;;5054569;28;20056;-85
2021/04/26 05:55:17;;;;;;;2.95;1.05;;;4.60;83.80;;;;;;5054368;28;20018;-85
2021/04/26 05:57:42;;;;;;;4.72;0.70;;;4.60;83.50;;;;;;5055697;28;20025;-84
2021/04/26 06:00:08;;;;;;;2.88;0.80;;;4.70;83.30;;;;;;5055566;28;20036;-85
2021/04/26 06:02:34;;;;;;;3.15;1.15;;;4.80;83.50;;;;;;5056072;28;20389;-84
2021/04/26 06:04:59;;;;;;;4.15;2.08;;;4.90;83.70;;;;;;5055472;28;20464;-84
2021/04/26 06:07:25;;;;;;;6.18;2.15;;;4.90;84.40;;;;;;5055561;28;20028;-85
2021/04/26 06:09:50;;;;;;;5.55;1.95;;;4.90;84.40;;;;;;5054132;28;20465;-84
2021/04/26 06:12:16;;;;;;;4.10;1.45;;;5.00;84.90;;;;;;5054134;28;20079;-83
2021/04/26 06:14:41;;;;;;;5.22;1.83;;;5.00;85.00;;;;;;5053059;28;20028;-86
2021/04/26 06:17:07;;;;;;;3.35;1.85;;;5.10;84.90;;;;;;5071687;28;20024;-84
2021/04/26 06:19:32;;;;;;;5.93;1.70;;;5.10;85.30;;;;;;5073835;28;20492;-83
2021/04/26 06:21:58;;;;;;;9.52;2.20;;;5.20;85.70;;;;;;5073803;28;20109;-85
2021/04/26 06:24:23;;;;;;;5.32;1.80;;;5.30;85.70;;;;;;5073930;28;20480;-83
2021/04/26 06:26:49;;;;;;;3.45;1.50;;;5.30;85.60;;;;;;5073776;28;20500;-84
2021/04/26 06:29:15;;;;;;;7.22;2.40;;;5.40;86.20;;;;;;5073798;28;20031;-84
2021/04/26 06:31:40;;;;;;;6.13;2.85;;;5.50;87.20;;;;;;5073335;28;20566;-83
2021/04/26 06:34:05;;;;;;;8.70;2.70;;;5.50;88.00;;;;;;5074770;28;20029;-84
2021/04/26 06:36:31;;;;;;;6.28;1.50;;;5.60;88.50;;;;;;5074971;28;20021;-84
2021/04/26 06:38:56;;;;;;;10.93;2.30;;;5.70;87.60;;;;;;5062768;28;20025;-85
2021/04/26 06:41:22;;;;;;;9.23;2.30;;;5.80;87.50;;;;;;5053624;28;20477;-84
2021/04/26 06:43:48;;;;;;;13.38;3.53;;;5.80;87.40;;;;;;5053238;28;20090;-84
2021/04/26 06:46:13;;;;;;;6.07;2.35;;;5.90;86.50;;;;;;5059656;28;20020;-85
2021/04/26 06:48:39;;;;;;;5.95;1.95;;;6.00;86.30;;;;;;5054743;28;20064;-85
2021/04/26 06:51:04;;;;;;;6.15;2.30;;;6.00;86.40;;;;;;5053558;28;20025;-85
2021/04/26 06:53:30;;;;;;;6.75;2.00;;;6.10;87.00;;;;;;5054458;28;20112;-83
2021/04/26 06:55:56;;;;;;;4.45;2.00;;;6.10;86.40;;;;;;5058959;28;20079;-84
2021/04/26 06:58:22;;;;;;;5.03;1.95;;;6.20;86.20;;;;;;5063103;28;20048;-85
2021/04/26 07:00:48;;;;;;;7.32;2.13;;;6.30;85.90;;;;;;5064329;28;20049;-84
2021/04/26 07:03:13;;;;;;;11.20;2.28;;;6.30;85.90;;;;;;5061575;28;20033;-84
2021/04/26 07:05:39;;;;;;;6.93;2.03;;;6.40;86.20;;;;;;5064568;28;20024;-85
2021/04/26 07:08:05;;;;;;;8.30;2.53;;;6.40;85.20;;;;;;5073032;28;20025;-84
2021/04/26 07:10:32;;;;;;;4.95;1.85;;;6.50;85.00;;;;;;5071362;28;20403;-84
2021/04/26 07:12:58;;;;;;;4.47;2.05;;;6.50;84.80;;;;;;5071959;28;20033;-83
2021/04/26 07:15:23;;;;;;;6.03;1.90;;;6.60;84.80;;;;;;5068736;28;20066;-82
2021/04/26 07:17:49;;;;;;;7.35;2.88;;;6.70;84.20;;;;;;5053949;28;20021;-83
2021/04/26 07:20:15;;;;;;;5.57;1.70;;;6.70;84.70;;;;;;5052581;28;20045;-86
2021/04/26 07:22:42;;;;;;;3.75;1.50;;;6.80;84.10;;;;;;5052418;28;20040;-83
2021/04/26 07:25:09;;;;;;;5.03;1.77;;;6.90;82.60;;;;;;5051746;28;20036;-85
2021/04/26 07:27:34;;;;;;;3.95;1.85;;;7.00;81.60;;;;;;5052612;28;20032;-86
2021/04/26 07:30:00;;;;;;;8.20;2.00;;;7.10;81.80;;;;;;5052460;28;20025;-85
2021/04/26 07:32:26;;;;;;;6.05;1.70;;;7.10;80.80;;;;;;5054709;28;20111;-84
2021/04/26 07:34:52;;;;;;;9.13;2.30;;;7.20;79.10;;;;;;5062481;28;20544;-85
2021/04/26 07:37:18;;;;;;;6.38;1.65;;;7.30;79.60;;;;;;5071575;28;20020;-84
2021/04/26 07:39:44;;;;;;;7.10;1.77;;;7.30;78.20;;;;;;5072002;28;20475;-84
2021/04/26 07:42:09;;;;;;;3.65;1.50;;;7.30;78.30;;;;;;5071209;28;20024;-83
2021/04/26 07:44:36;;;;;;;4.05;1.73;;;7.40;77.80;;;;;;5059337;28;20040;-84
2021/04/26 07:47:02;;;;;;;5.93;1.88;;;7.50;77.30;;;;;;5062503;28;20016;-85
2021/04/26 07:49:27;;;;;;;4.65;2.05;;;7.50;77.00;;;;;;5067114;28;20031;-85
2021/04/26 07:51:53;;;;;;;4.15;1.33;;;7.60;77.90;;;;;;5053906;28;20029;-86
2021/04/26 07:54:19;;;;;;;3.45;1.75;;;7.70;78.40;;;;;;5060953;28;20025;-84
2021/04/26 07:56:45;;;;;;;6.75;2.05;;;7.80;78.50;;;;;;5068066;28;20480;-85
2021/04/26 07:59:10;;;;;;;7.35;2.17;;;8.00;78.30;;;;;;5067113;28;20179;-84
2021/04/26 08:01:36;;;;;;;4.82;1.58;;;8.00;76.80;;;;;;5063346;28;20384;-83
2021/04/26 08:04:02;;;;;;;2.72;1.48;;;8.10;76.40;;;;;;5064241;28;20032;-85
2021/04/26 08:06:27;;;;;;;4.68;1.85;;;8.20;75.60;;;;;;5063753;28;20040;-85
2021/04/26 08:08:53;;;;;;;8.80;2.22;;;8.30;75.40;;;;;;5063665;28;20028;-85
2021/04/26 08:11:19;;;;;;;9.15;2.22;;;8.40;73.90;;;;;;5063114;28;20067;-85
2021/04/26 08:13:44;;;;;;;6.35;2.20;;;8.50;75.10;;;;;;5062785;28;20029;-85
2021/04/26 08:16:10;;;;;;;3.15;1.30;;;8.60;74.90;;;;;;5061995;28;20013;-85
2021/04/26 08:18:35;;;;;;;4.90;2.63;;;8.60;74.70;;;;;;5060189;28;20042;-85
2021/04/26 08:21:02;;;;;;;4.40;1.55;;;8.70;73.80;;;;;;5071257;28;20087;-85
2021/04/26 08:23:27;;;;;;;6.18;1.77;;;8.80;72.70;;;;;;5054132;28;20012;-85
2021/04/26 08:25:53;;;;;;;3.45;1.40;;;8.90;71.40;;;;;;5088466;28;20028;-85
2021/04/26 08:28:19;;;;;;;6.28;1.65;;;9.00;70.80;;;;;;5070483;28;20031;-84
2021/04/26 08:30:47;;;;;;;3.53;1.70;;;9.10;69.90;;;;;;5047601;28;20103;-84
2021/04/26 08:33:12;;;;;;;3.42;1.52;;;9.10;70.30;;;;;;5064608;28;20502;-81
2021/04/26 08:35:38;;;;;;;4.82;1.52;;;9.20;70.90;;;;;;5049132;28;20107;-82
2021/04/26 08:38:04;;;;;;;5.50;1.55;;;9.30;69.70;;;;;;5051093;28;20032;-87
2021/04/26 08:40:29;;;;;;;3.72;1.35;;;9.40;69.30;;;;;;5074662;28;20023;-87
2021/04/26 08:42:57;;;;;;;3.20;1.30;;;9.50;69.50;;;;;;5079573;28;20021;-86
2021/04/26 08:45:22;;;;;;;4.55;1.55;;;9.60;69.20;;;;;;5077822;28;20020;-86
2021/04/26 08:47:49;;;;;;;4.60;1.70;;;9.70;69.20;;;;;;5072100;28;20099;-85
2021/04/26 08:50:14;;;;;;;2.40;1.30;;;9.70;69.10;;;;;;5072332;28;20099;-83
2021/04/26 08:52:40;;;;;;;2.78;1.27;;;9.90;69.60;;;;;;5075043;28;20063;-89
2021/04/26 08:55:07;;;;;;;4.50;1.52;;;10.00;69.30;;;;;;5054851;28;20070;-86
2021/04/26 08:57:33;;;;;;;2.25;1.40;;;10.10;68.40;;;;;;5072407;28;20028;-88
2021/04/26 08:59:59;;;;;;;3.28;1.38;;;10.20;68.10;;;;;;5075027;28;20023;-86
2021/04/26 09:02:24;;;;;;;4.03;1.20;;;10.30;67.00;;;;;;5073542;28;20029;-89
2021/04/26 09:04:57;;;;;;;3.40;1.40;;;10.40;65.40;;;;;;5073488;28;20388;-89
2021/04/26 09:07:23;;;;;;;4.07;1.42;;;10.50;65.50;;;;;;5056243;28;20025;-91
2021/04/26 09:09:53;;;;;;;5.25;1.60;;;10.60;65.60;;;;;;5073716;28;20025;-91
2021/04/26 09:12:22;;;;;;;4.32;1.83;;;10.60;65.10;;;;;;5056173;28;20036;-91
2021/04/26 09:14:52;;;;;;;4.05;1.27;;;10.60;65.30;;;;;;5056060;28;20024;-89
2021/04/26 09:17:34;;;;;;;2.88;1.50;;;10.70;65.30;;;;;;5055700;28;20029;-89
2021/04/26 09:20:22;;;;;;;5.10;1.65;;;10.90;64.30;;;;;;5060685;28;20495;-89
2021/04/26 09:22:59;;;;;;;4.60;1.70;;;11.00;63.80;;;;;;5072300;28;20031;-89
2021/04/26 09:25:34;;;;;;;4.20;1.45;;;11.00;63.50;;;;;;5073841;28;20503;-92
2021/04/26 09:28:00;;;;;;;4.05;1.40;;;11.20;63.30;;;;;;5073273;28;20095;-91
2021/04/26 09:30:38;;;;;;;2.35;1.40;;;11.30;62.20;;;;;;5076910;28;20102;-92
2021/04/26 09:33:17;;;;;;;2.30;1.10;;;11.40;62.00;;;;;;5074112;28;20043;-93
2021/04/26 09:35:43;;;;;;;6.78;1.58;;;11.70;61.70;;;;;;5056263;28;20044;-94
2021/04/26 09:38:26;;;;;;;4.85;1.80;;;12.00;60.70;;;;;;5061405;28;20010;-85
2021/04/26 09:41:14;;;;;;;2.70;1.77;;;12.40;59.30;;;;;;5062396;28;20051;-89
2021/04/26 09:43:42;;;;;;;2.45;1.13;;;12.70;59.20;;;;;;5067708;28;20032;-92
2021/04/26 09:46:08;;;;;;;3.55;1.30;;;13.10;61.30;;;;;;5051875;28;20035;-89
2021/04/26 09:48:35;;;;;;;2.40;1.23;;;13.90;59.90;;;;;;5052167;28;20052;-90
2021/04/26 09:51:02;;;;;;;1.67;0.80;;;16.50;55.50;;;;;;5062484;28;20120;-89
2021/04/26 09:53:33;;;;;;;1.48;0.60;;;19.50;51.50;;;;;;5074279;28;20086;-92
2021/04/26 09:56:15;;;;;;;1.85;0.77;;;22.10;46.70;;;;;;5080137;28;20028;-91
2021/04/26 09:58:43;;;;;;;2.53;1.00;;;24.00;41.50;;;;;;5079990;28;20034;-95
2021/04/26 10:01:09;;;;;;;2.05;1.00;;;25.30;37.00;;;;;;5076411;28;20046;-94
2021/04/26 10:03:34;;;;;;;3.78;1.80;;;26.20;35.30;;;;;;5075950;28;20025;-93
2021/04/26 10:06:00;;;;;;;5.22;1.30;;;27.10;34.40;;;;;;5080552;28;20027;-96
2021/04/26 10:08:26;;;;;;;2.55;1.25;;;27.10;29.30;;;;;;5080728;28;20054;-90
2021/04/26 10:10:52;;;;;;;2.92;1.10;;;25.80;29.20;;;;;;5067105;28;20031;-92
2021/04/26 10:13:21;;;;;;;2.95;1.30;;;26.30;29.90;;;;;;5071409;28;20032;-87
2021/04/26 10:15:53;;;;;;;3.40;1.48;;;26.80;29.30;;;;;;5067711;28;20607;-88
2021/04/26 10:18:20;;;;;;;4.22;1.25;;;27.10;28.00;;;;;;5054943;28;20029;-86
2021/04/26 10:20:46;;;;;;;3.83;1.20;;;27.10;28.30;;;;;;5053449;28;20053;-87
2021/04/26 10:23:38;;;;;;;2.78;1.10;;;27.90;28.60;;;;;;5053789;28;20028;-87
2021/04/26 10:26:04;;;;;;;2.22;1.05;;;29.00;28.20;;;;;;5053736;28;20527;-86
2021/04/26 10:28:38;;;;;;;3.63;1.10;;;30.00;28.40;;;;;;5053668;28;20380;-86
2021/04/26 10:31:04;;;;;;;2.90;0.95;;;30.70;27.50;;;;;;5053559;28;20043;-86
2021/04/26 10:33:55;;;;;;;1.15;0.73;;;31.10;27.80;;;;;;5063506;28;20112;-87
2021/04/26 10:36:47;;;;;;;1.60;0.85;;;31.00;27.70;;;;;;5062644;28;20074;-88
2021/04/26 10:39:17;;;;;;;3.10;0.82;;;31.40;27.40;;;;;;5062913;28;20017;-86
2021/04/26 10:41:46;;;;;;;3.55;0.93;;;31.90;26.80;;;;;;5067551;28;20032;-86
2021/04/26 10:44:12;;;;;;;3.20;0.90;;;32.10;26.40;;;;;;5073261;28;20028;-85
2021/04/26 10:46:38;;;;;;;2.58;0.98;;;32.00;26.20;;;;;;5073324;28;20028;-86
2021/04/26 10:49:03;;;;;;;5.00;1.08;;;32.20;26.30;;;;;;5064037;28;20048;-86
2021/04/26 10:51:29;;;;;;;3.13;1.60;;;31.90;26.50;;;;;;5070323;28;20093;-87
2021/04/26 10:53:54;;;;;;;3.10;1.20;;;31.80;25.40;;;;;;5073136;28;20119;-87
2021/04/26 10:56:23;;;;;;;1.75;1.02;;;31.80;26.10;;;;;;5072570;28;20031;-85
2021/04/26 10:58:49;;;;;;;2.65;0.90;;;32.00;25.80;;;;;;5069580;28;20025;-86
2021/04/26 11:01:19;;;;;;;1.60;1.10;;;32.40;26.10;;;;;;5074144;28;20102;-85
2021/04/26 11:03:45;;;;;;;1.58;0.90;;;32.70;25.60;;;;;;5060863;28;20028;-84
2021/04/26 11:06:12;;;;;;;2.15;1.30;;;32.80;25.70;;;;;;5062939;28;20384;-83
2021/04/26 11:08:46;;;;;;;3.33;1.30;;;32.90;25.40;;;;;;5060730;28;20029;-83
2021/04/26 11:13:43;;;;;;;2.13;1.08;;;32.60;25.30;;;;;;5054100;28;20072;-83
2021/04/26 11:16:15;;;;;;;2.95;1.30;;;32.30;25.30;;;;;;5062201;28;20028;-85
2021/04/26 11:18:47;;;;;;;4.97;1.85;;;31.40;25.30;;;;;;5073801;28;20028;-86
2021/04/26 11:21:41;;;;;;;3.72;1.60;;;30.40;24.40;;;;;;5055118;28;20037;-83
2021/04/26 11:24:07;;;;;;;2.13;1.08;;;29.10;25.80;;;;;;5033428;28;20060;-83
2021/04/26 11:26:33;;;;;;;2.47;1.10;;;28.30;26.50;;;;;;5060036;28;20025;-84
2021/04/26 11:29:01;;;;;;;2.53;0.90;;;27.70;26.90;;;;;;5033304;28;20087;-87
2021/04/26 11:31:42;;;;;;;2.10;1.27;;;27.50;27.50;;;;;;5032359;28;20025;-85
2021/04/26 11:34:19;;;;;;;3.25;1.05;;;27.40;27.40;;;;;;5032804;28;20104;-85
2021/04/26 11:37:03;;;;;;;3.33;1.20;;;27.10;27.70;;;;;;5030353;28;20025;-87
2021/04/26 11:39:34;;;;;;;3.15;0.77;;;25.70;27.90;;;;;;5035645;28;20025;-87
2021/04/26 11:42:00;;;;;;;3.33;1.10;;;25.10;28.90;;;;;;5044263;28;20021;-86
2021/04/26 11:44:31;;;;;;;1.70;0.88;;;25.00;29.20;;;;;;5033182;28;20028;-88
2021/04/26 11:47:08;;;;;;;2.83;1.15;;;25.30;29.10;;;;;;5035349;28;20052;-86
2021/04/26 11:49:35;;;;;;;1.88;0.90;;;25.90;28.90;;;;;;5033684;28;20056;-85
2021/04/26 11:52:09;;;;;;;1.83;0.93;;;25.90;28.70;;;;;;5017892;28;20443;-85
2021/04/26 11:54:36;;;;;;;2.10;0.80;;;25.90;28.80;;;;;;5013653;28;20026;-86
2021/04/26 11:57:11;;;;;;;1.75;1.05;;;26.10;28.70;;;;;;5015948;28;20126;-87
2021/04/26 11:59:54;;;;;;;1.92;1.00;;;25.90;28.70;;;;;;5027907;28;20154;-84
2021/04/26 12:02:31;;;;;;;3.53;1.02;;;26.40;28.70;;;;;;5015343;28;20026;-85
2021/04/26 12:05:01;;;;;;;2.33;1.05;;;26.50;28.70;;;;;;5014985;28;20099;-86
2021/04/26 12:07:27;;;;;;;2.08;0.93;;;26.30;28.70;;;;;;5032647;28;20018;-85
2021/04/26 12:10:10;;;;;;;2.50;1.10;;;26.40;28.20;;;;;;5015171;28;20048;-86
2021/04/26 12:12:36;;;;;;;3.17;1.15;;;26.60;27.60;;;;;;5014356;28;20108;-85
2021/04/26 12:15:07;;;;;;;2.13;0.88;;;26.40;27.90;;;;;;5014902;28;20157;-86
2021/04/26 12:17:34;;;;;;;3.10;1.23;;;25.80;28.10;;;;;;5014951;28;20438;-85
2021/04/26 12:20:08;;;;;;;1.98;1.17;;;25.50;28.10;;;;;;5041054;28;20033;-87
2021/04/26 12:22:34;;;;;;;2.78;1.08;;;25.60;28.40;;;;;;5051073;28;20045;-87
2021/04/26 12:25:05;;;;;;;1.58;0.85;;;25.20;28.90;;;;;;5057963;28;20024;-87
2021/04/26 12:27:31;;;;;;;3.00;1.10;;;24.70;29.70;;;;;;5061674;28;20196;-85
2021/04/26 12:30:16;;;;;;;3.10;1.33;;;24.60;29.30;;;;;;5060561;28;20531;-86
2021/04/26 12:32:43;;;;;;;3.53;1.50;;;24.80;29.00;;;;;;5060667;28;20021;-86
2021/04/26 12:35:17;;;;;;;2.05;1.17;;;24.90;28.80;;;;;;5060681;28;20025;-86
2021/04/26 12:37:46;;;;;;;3.20;1.30;;;25.00;28.50;;;;;;5054967;28;20060;-87
2021/04/26 12:40:17;;;;;;;4.00;1.38;;;25.10;28.70;;;;;;5058598;28;20051;-87
2021/04/26 12:42:45;;;;;;;3.53;1.60;;;25.00;28.60;;;;;;5054585;28;20064;-85
2021/04/26 12:45:21;;;;;;;2.17;1.30;;;24.80;28.70;;;;;;5071312;28;20021;-85
2021/04/26 12:47:53;;;;;;;2.25;1.40;;;24.70;29.30;;;;;;5072521;28;20439;-85
2021/04/26 12:50:33;;;;;;;1.80;1.10;;;24.30;29.50;;;;;;5071602;28;20082;-85
2021/04/26 12:53:13;;;;;;;1.92;1.08;;;24.40;29.60;;;;;;5072311;28;20031;-85
2021/04/26 12:55:49;;;;;;;3.03;1.40;;;24.40;29.60;;;;;;5071181;28;20108;-86
2021/04/26 12:58:34;;;;;;;3.15;1.40;;;24.50;29.50;;;;;;5069378;28;20034;-86
2021/04/26 13:01:13;;;;;;;2.65;1.40;;;24.50;29.30;;;;;;5059065;28;20017;-85